ミラノ/マルペンサ の空港の天気 - METARとTAF

ミラノ・マルペンサ国際空港 ( LIMC / MXP ) - イタリア ミラノ
飛行場実況気象(Metar)
観測時間01/23 06:20 CET (01/23 05:20 UTC)
風向・風速北 2m/s
視程10km以上
天気現象
なし
気温-4℃
湿度93%
気圧1018hPa
METARLIMC 230520Z 01003KT CAVOK M04/M05 Q1018 NOSIG
過去の天気等 Google飛行場航空写真 Wunderground天気予報

過去48時間のMETAR

飛行場予報(TAF)
発表時間: 1/23 06:00 CET (1/23 05:00 UTC)
予報対象時間: 23日7時 CET ~ 24日13時 CET
風向・風速不定 3m/s
視程10km以上
なし
TAF LIMC 230500Z 2306/2412 VRB05KT CAVOK